sensor_id;sensor_type;location;lat;lon;timestamp;P1;durP1;ratioP1;P2;durP2;ratioP2
23800;SDS011;12081;48.614;10.226;2022-08-03T00:00:25;3.60;;;2.90;;
23800;SDS011;12081;48.614;10.226;2022-08-03T00:03:09;3.73;;;3.40;;
23800;SDS011;12081;48.614;10.226;2022-08-03T00:05:53;3.87;;;3.33;;
23800;SDS011;12081;48.614;10.226;2022-08-03T00:08:38;4.67;;;3.40;;
23800;SDS011;12081;48.614;10.226;2022-08-03T00:11:22;3.77;;;3.47;;
23800;SDS011;12081;48.614;10.226;2022-08-03T00:14:06;5.43;;;3.80;;
23800;SDS011;12081;48.614;10.226;2022-08-03T00:16:51;3.90;;;3.40;;
23800;SDS011;12081;48.614;10.226;2022-08-03T00:19:35;6.57;;;3.47;;
23800;SDS011;12081;48.614;10.226;2022-08-03T00:22:19;4.43;;;3.50;;
23800;SDS011;12081;48.614;10.226;2022-08-03T00:25:03;5.23;;;3.40;;
23800;SDS011;12081;48.614;10.226;2022-08-03T00:27:48;4.73;;;3.60;;
23800;SDS011;12081;48.614;10.226;2022-08-03T00:30:32;4.10;;;3.20;;
23800;SDS011;12081;48.614;10.226;2022-08-03T00:33:16;4.60;;;3.77;;
23800;SDS011;12081;48.614;10.226;2022-08-03T00:36:01;5.33;;;3.80;;
23800;SDS011;12081;48.614;10.226;2022-08-03T00:38:45;4.20;;;3.80;;
23800;SDS011;12081;48.614;10.226;2022-08-03T00:41:29;6.13;;;3.97;;
23800;SDS011;12081;48.614;10.226;2022-08-03T00:44:13;5.43;;;3.30;;
23800;SDS011;12081;48.614;10.226;2022-08-03T00:46:57;4.77;;;4.17;;
23800;SDS011;12081;48.614;10.226;2022-08-03T00:52:14;4.53;;;3.23;;
23800;SDS011;12081;48.614;10.226;2022-08-03T05:21:46;9.50;;;4.87;;
23800;SDS011;12081;48.614;10.226;2022-08-03T05:24:31;6.20;;;4.67;;
23800;SDS011;12081;48.614;10.226;2022-08-03T05:27:15;7.03;;;4.73;;
23800;SDS011;12081;48.614;10.226;2022-08-03T05:30:08;7.43;;;5.10;;
23800;SDS011;12081;48.614;10.226;2022-08-03T05:33:13;7.23;;;4.50;;
23800;SDS011;12081;48.614;10.226;2022-08-03T05:35:58;8.07;;;4.47;;
23800;SDS011;12081;48.614;10.226;2022-08-03T05:38:42;13.03;;;4.47;;
23800;SDS011;12081;48.614;10.226;2022-08-03T05:41:27;6.47;;;4.03;;
23800;SDS011;12081;48.614;10.226;2022-08-03T05:44:11;10.40;;;3.80;;
23800;SDS011;12081;48.614;10.226;2022-08-03T05:46:56;6.30;;;4.10;;
23800;SDS011;12081;48.614;10.226;2022-08-03T05:49:40;14.97;;;5.07;;
23800;SDS011;12081;48.614;10.226;2022-08-03T05:52:24;17.43;;;5.20;;
23800;SDS011;12081;48.614;10.226;2022-08-03T05:55:09;18.17;;;5.30;;
23800;SDS011;12081;48.614;10.226;2022-08-03T05:57:54;11.17;;;4.67;;
23800;SDS011;12081;48.614;10.226;2022-08-03T06:00:38;18.33;;;4.87;;
23800;SDS011;12081;48.614;10.226;2022-08-03T06:03:22;6.57;;;3.67;;
23800;SDS011;12081;48.614;10.226;2022-08-03T06:06:06;6.13;;;4.00;;
23800;SDS011;12081;48.614;10.226;2022-08-03T06:08:50;11.83;;;4.27;;
23800;SDS011;12081;48.614;10.226;2022-08-03T06:11:35;8.53;;;4.30;;
23800;SDS011;12081;48.614;10.226;2022-08-03T06:14:20;7.40;;;3.70;;
23800;SDS011;12081;48.614;10.226;2022-08-03T06:17:04;7.30;;;3.73;;
23800;SDS011;12081;48.614;10.226;2022-08-03T06:19:50;7.40;;;3.70;;
23800;SDS011;12081;48.614;10.226;2022-08-03T06:22:35;6.90;;;4.27;;
23800;SDS011;12081;48.614;10.226;2022-08-03T06:25:19;9.23;;;4.20;;
23800;SDS011;12081;48.614;10.226;2022-08-03T06:28:03;8.57;;;3.77;;
23800;SDS011;12081;48.614;10.226;2022-08-03T06:30:48;7.97;;;4.10;;
23800;SDS011;12081;48.614;10.226;2022-08-03T06:33:32;8.67;;;4.00;;
23800;SDS011;12081;48.614;10.226;2022-08-03T06:36:16;8.47;;;4.13;;
23800;SDS011;12081;48.614;10.226;2022-08-03T06:39:00;6.13;;;3.70;;
23800;SDS011;12081;48.614;10.226;2022-08-03T06:41:44;8.07;;;3.63;;
23800;SDS011;12081;48.614;10.226;2022-08-03T06:44:28;5.47;;;3.30;;
23800;SDS011;12081;48.614;10.226;2022-08-03T06:47:12;11.03;;;3.40;;
23800;SDS011;12081;48.614;10.226;2022-08-03T06:49:56;8.05;;;3.53;;
23800;SDS011;12081;48.614;10.226;2022-08-03T06:52:40;9.57;;;3.80;;
23800;SDS011;12081;48.614;10.226;2022-08-03T06:55:24;7.75;;;4.07;;
23800;SDS011;12081;48.614;10.226;2022-08-03T06:58:09;6.20;;;3.50;;
23800;SDS011;12081;48.614;10.226;2022-08-03T07:00:53;9.43;;;4.07;;
23800;SDS011;12081;48.614;10.226;2022-08-03T07:03:37;9.27;;;3.78;;
23800;SDS011;12081;48.614;10.226;2022-08-03T07:06:23;10.23;;;4.03;;
23800;SDS011;12081;48.614;10.226;2022-08-03T07:09:07;9.00;;;3.95;;
23800;SDS011;12081;48.614;10.226;2022-08-03T07:11:51;14.80;;;3.88;;
23800;SDS011;12081;48.614;10.226;2022-08-03T07:14:36;5.75;;;3.13;;
23800;SDS011;12081;48.614;10.226;2022-08-03T07:17:20;15.50;;;3.42;;
23800;SDS011;12081;48.614;10.226;2022-08-03T07:20:06;6.68;;;3.08;;
23800;SDS011;12081;48.614;10.226;2022-08-03T07:22:50;6.80;;;2.90;;
23800;SDS011;12081;48.614;10.226;2022-08-03T07:25:34;7.45;;;3.20;;
23800;SDS011;12081;48.614;10.226;2022-08-03T07:28:18;11.98;;;3.17;;
23800;SDS011;12081;48.614;10.226;2022-08-03T07:31:02;9.00;;;3.40;;
23800;SDS011;12081;48.614;10.226;2022-08-03T07:33:46;7.13;;;2.67;;
23800;SDS011;12081;48.614;10.226;2022-08-03T07:36:30;8.20;;;2.72;;
23800;SDS011;12081;48.614;10.226;2022-08-03T07:39:14;4.90;;;2.13;;
23800;SDS011;12081;48.614;10.226;2022-08-03T07:41:59;4.78;;;1.80;;
23800;SDS011;12081;48.614;10.226;2022-08-03T07:44:43;4.03;;;1.80;;
23800;SDS011;12081;48.614;10.226;2022-08-03T07:47:28;1.65;;;1.48;;
23800;SDS011;12081;48.614;10.226;2022-08-03T07:50:13;2.08;;;1.38;;
23800;SDS011;12081;48.614;10.226;2022-08-03T07:52:57;2.90;;;1.40;;
23800;SDS011;12081;48.614;10.226;2022-08-03T07:55:42;1.90;;;1.45;;
23800;SDS011;12081;48.614;10.226;2022-08-03T07:58:26;2.47;;;1.50;;
23800;SDS011;12081;48.614;10.226;2022-08-03T08:01:10;2.70;;;1.55;;
23800;SDS011;12081;48.614;10.226;2022-08-03T08:03:54;1.65;;;1.40;;
23800;SDS011;12081;48.614;10.226;2022-08-03T08:06:38;2.38;;;1.63;;
23800;SDS011;12081;48.614;10.226;2022-08-03T08:09:22;2.65;;;1.60;;
23800;SDS011;12081;48.614;10.226;2022-08-03T08:12:07;2.03;;;1.50;;
23800;SDS011;12081;48.614;10.226;2022-08-03T08:14:52;2.33;;;1.70;;
23800;SDS011;12081;48.614;10.226;2022-08-03T08:20:31;1.70;;;1.60;;
23800;SDS011;12081;48.614;10.226;2022-08-03T08:23:19;3.15;;;1.65;;
23800;SDS011;12081;48.614;10.226;2022-08-03T08:26:06;1.65;;;1.55;;
23800;SDS011;12081;48.614;10.226;2022-08-03T08:28:50;2.08;;;1.50;;
23800;SDS011;12081;48.614;10.226;2022-08-03T08:31:35;1.58;;;1.48;;
23800;SDS011;12081;48.614;10.226;2022-08-03T08:34:19;3.03;;;1.40;;
23800;SDS011;12081;48.614;10.226;2022-08-03T08:37:03;1.88;;;1.60;;
23800;SDS011;12081;48.614;10.226;2022-08-03T08:39:47;3.35;;;1.50;;
23800;SDS011;12081;48.614;10.226;2022-08-03T08:42:31;2.05;;;1.60;;
23800;SDS011;12081;48.614;10.226;2022-08-03T08:45:15;3.10;;;1.70;;
23800;SDS011;12081;48.614;10.226;2022-08-03T08:48:01;1.75;;;1.60;;
23800;SDS011;12081;48.614;10.226;2022-08-03T08:50:46;1.75;;;1.40;;
23800;SDS011;12081;48.614;10.226;2022-08-03T08:53:31;1.70;;;1.60;;
23800;SDS011;12081;48.614;10.226;2022-08-03T08:56:19;1.60;;;1.50;;
23800;SDS011;12081;48.614;10.226;2022-08-03T08:59:07;3.33;;;1.48;;
23800;SDS011;12081;48.614;10.226;2022-08-03T09:01:55;5.18;;;1.42;;
23800;SDS011;12081;48.614;10.226;2022-08-03T09:04:40;3.08;;;1.70;;
23800;SDS011;12081;48.614;10.226;2022-08-03T09:07:24;3.10;;;1.48;;
23800;SDS011;12081;48.614;10.226;2022-08-03T09:10:11;2.30;;;1.33;;
23800;SDS011;12081;48.614;10.226;2022-08-03T09:12:56;2.00;;;0.90;;
23800;SDS011;12081;48.614;10.226;2022-08-03T09:15:40;1.58;;;1.15;;
23800;SDS011;12081;48.614;10.226;2022-08-03T09:18:28;1.42;;;1.13;;
23800;SDS011;12081;48.614;10.226;2022-08-03T09:24:08;0.90;;;0.90;;
23800;SDS011;12081;48.614;10.226;2022-08-03T09:26:52;1.80;;;0.88;;
23800;SDS011;12081;48.614;10.226;2022-08-03T09:29:36;1.55;;;1.05;;
23800;SDS011;12081;48.614;10.226;2022-08-03T09:32:22;1.95;;;0.95;;
23800;SDS011;12081;48.614;10.226;2022-08-03T09:35:07;1.48;;;1.00;;
23800;SDS011;12081;48.614;10.226;2022-08-03T09:38:07;1.27;;;0.70;;
23800;SDS011;12081;48.614;10.226;2022-08-03T09:40:58;0.82;;;0.80;;
23800;SDS011;12081;48.614;10.226;2022-08-03T09:43:45;1.67;;;0.95;;
23800;SDS011;12081;48.614;10.226;2022-08-03T09:46:30;1.88;;;0.98;;
23800;SDS011;12081;48.614;10.226;2022-08-03T09:49:15;1.05;;;0.70;;
23800;SDS011;12081;48.614;10.226;2022-08-03T09:52:00;0.85;;;0.80;;
23800;SDS011;12081;48.614;10.226;2022-08-03T09:54:55;4.63;;;1.10;;
23800;SDS011;12081;48.614;10.226;2022-08-03T09:57:39;1.05;;;0.80;;
23800;SDS011;12081;48.614;10.226;2022-08-03T10:00:27;2.05;;;0.93;;
23800;SDS011;12081;48.614;10.226;2022-08-03T10:03:12;1.35;;;0.90;;
23800;SDS011;12081;48.614;10.226;2022-08-03T10:05:56;0.75;;;0.68;;
23800;SDS011;12081;48.614;10.226;2022-08-03T10:08:40;0.98;;;0.73;;
23800;SDS011;12081;48.614;10.226;2022-08-03T10:11:28;0.90;;;0.65;;
23800;SDS011;12081;48.614;10.226;2022-08-03T10:14:13;1.52;;;0.90;;
23800;SDS011;12081;48.614;10.226;2022-08-03T10:17:05;1.23;;;0.95;;
23800;SDS011;12081;48.614;10.226;2022-08-03T10:19:50;1.35;;;0.75;;
23800;SDS011;12081;48.614;10.226;2022-08-03T10:22:34;1.20;;;1.05;;
23800;SDS011;12081;48.614;10.226;2022-08-03T10:25:22;1.42;;;0.90;;
23800;SDS011;12081;48.614;10.226;2022-08-03T10:28:07;1.88;;;1.20;;
23800;SDS011;12081;48.614;10.226;2022-08-03T10:30:57;3.05;;;1.13;;
23800;SDS011;12081;48.614;10.226;2022-08-03T10:33:42;0.90;;;0.90;;
23800;SDS011;12081;48.614;10.226;2022-08-03T10:36:30;1.83;;;0.90;;
23800;SDS011;12081;48.614;10.226;2022-08-03T10:39:18;1.00;;;0.90;;
23800;SDS011;12081;48.614;10.226;2022-08-03T10:42:06;3.38;;;0.90;;
23800;SDS011;12081;48.614;10.226;2022-08-03T10:44:55;0.98;;;0.90;;
23800;SDS011;12081;48.614;10.226;2022-08-03T10:47:46;1.17;;;0.88;;
23800;SDS011;12081;48.614;10.226;2022-08-03T10:50:31;1.00;;;0.90;;
23800;SDS011;12081;48.614;10.226;2022-08-03T10:53:16;1.40;;;1.10;;
23800;SDS011;12081;48.614;10.226;2022-08-03T11:03:00;2.13;;;1.00;;
23800;SDS011;12081;48.614;10.226;2022-08-03T11:05:45;0.93;;;0.80;;
23800;SDS011;12081;48.614;10.226;2022-08-03T11:08:32;2.45;;;1.30;;
23800;SDS011;12081;48.614;10.226;2022-08-03T11:14:06;2.05;;;0.98;;
23800;SDS011;12081;48.614;10.226;2022-08-03T11:17:05;3.53;;;0.82;;
23800;SDS011;12081;48.614;10.226;2022-08-03T11:19:51;1.52;;;1.17;;
23800;SDS011;12081;48.614;10.226;2022-08-03T11:22:46;1.73;;;0.90;;
23800;SDS011;12081;48.614;10.226;2022-08-03T11:25:54;1.05;;;0.95;;
23800;SDS011;12081;48.614;10.226;2022-08-03T11:29:10;1.73;;;1.00;;
23800;SDS011;12081;48.614;10.226;2022-08-03T11:32:49;3.00;;;1.20;;
23800;SDS011;12081;48.614;10.226;2022-08-03T11:35:30;1.80;;;1.10;;
23800;SDS011;12081;48.614;10.226;2022-08-03T11:38:16;1.20;;;1.10;;
23800;SDS011;12081;48.614;10.226;2022-08-03T11:41:01;2.15;;;0.82;;
23800;SDS011;12081;48.614;10.226;2022-08-03T11:43:45;1.95;;;1.10;;
23800;SDS011;12081;48.614;10.226;2022-08-03T11:46:35;1.60;;;1.00;;
23800;SDS011;12081;48.614;10.226;2022-08-03T11:49:20;1.25;;;1.00;;
23800;SDS011;12081;48.614;10.226;2022-08-03T11:52:06;0.93;;;0.93;;
23800;SDS011;12081;48.614;10.226;2022-08-03T11:54:52;1.95;;;1.20;;
23800;SDS011;12081;48.614;10.226;2022-08-03T11:57:36;1.33;;;0.98;;
23800;SDS011;12081;48.614;10.226;2022-08-03T12:03:09;1.70;;;1.00;;
23800;SDS011;12081;48.614;10.226;2022-08-03T12:05:56;1.65;;;1.13;;
23800;SDS011;12081;48.614;10.226;2022-08-03T12:08:40;1.70;;;0.88;;
23800;SDS011;12081;48.614;10.226;2022-08-03T12:11:25;0.95;;;0.90;;
23800;SDS011;12081;48.614;10.226;2022-08-03T12:14:15;1.13;;;0.85;;
23800;SDS011;12081;48.614;10.226;2022-08-03T12:16:59;0.80;;;0.77;;
23800;SDS011;12081;48.614;10.226;2022-08-03T12:19:43;1.85;;;0.98;;
23800;SDS011;12081;48.614;10.226;2022-08-03T12:22:34;1.60;;;0.90;;
23800;SDS011;12081;48.614;10.226;2022-08-03T12:25:25;2.13;;;0.88;;
23800;SDS011;12081;48.614;10.226;2022-08-03T12:28:11;2.22;;;0.90;;
23800;SDS011;12081;48.614;10.226;2022-08-03T12:31:07;2.65;;;0.90;;
23800;SDS011;12081;48.614;10.226;2022-08-03T12:34:01;1.13;;;0.90;;
23800;SDS011;12081;48.614;10.226;2022-08-03T12:36:51;1.00;;;0.90;;
23800;SDS011;12081;48.614;10.226;2022-08-03T12:39:39;1.45;;;1.00;;
23800;SDS011;12081;48.614;10.226;2022-08-03T12:42:30;0.85;;;0.70;;
23800;SDS011;12081;48.614;10.226;2022-08-03T12:45:19;0.98;;;0.90;;
23800;SDS011;12081;48.614;10.226;2022-08-03T12:48:08;1.40;;;1.00;;
23800;SDS011;12081;48.614;10.226;2022-08-03T12:51:06;0.88;;;0.85;;
23800;SDS011;12081;48.614;10.226;2022-08-03T12:53:52;1.02;;;0.80;;
23800;SDS011;12081;48.614;10.226;2022-08-03T12:56:55;1.27;;;0.85;;
23800;SDS011;12081;48.614;10.226;2022-08-03T12:59:49;1.17;;;0.88;;
23800;SDS011;12081;48.614;10.226;2022-08-03T13:02:33;1.45;;;1.02;;
23800;SDS011;12081;48.614;10.226;2022-08-03T13:05:18;0.98;;;0.85;;
23800;SDS011;12081;48.614;10.226;2022-08-03T13:08:02;1.90;;;0.88;;
23800;SDS011;12081;48.614;10.226;2022-08-03T13:10:47;1.10;;;0.88;;
23800;SDS011;12081;48.614;10.226;2022-08-03T13:13:37;2.25;;;0.70;;
23800;SDS011;12081;48.614;10.226;2022-08-03T13:16:22;0.80;;;0.80;;
23800;SDS011;12081;48.614;10.226;2022-08-03T13:19:07;0.95;;;0.82;;
23800;SDS011;12081;48.614;10.226;2022-08-03T13:21:53;1.25;;;0.80;;
23800;SDS011;12081;48.614;10.226;2022-08-03T13:24:37;1.20;;;0.90;;
23800;SDS011;12081;48.614;10.226;2022-08-03T13:27:21;0.68;;;0.68;;
23800;SDS011;12081;48.614;10.226;2022-08-03T13:30:06;1.33;;;0.98;;
23800;SDS011;12081;48.614;10.226;2022-08-03T13:32:51;0.82;;;0.82;;
23800;SDS011;12081;48.614;10.226;2022-08-03T13:35:35;1.85;;;0.95;;
23800;SDS011;12081;48.614;10.226;2022-08-03T13:38:19;1.00;;;0.80;;
23800;SDS011;12081;48.614;10.226;2022-08-03T13:41:04;0.90;;;0.90;;
23800;SDS011;12081;48.614;10.226;2022-08-03T13:43:48;1.23;;;1.10;;
23800;SDS011;12081;48.614;10.226;2022-08-03T13:46:32;2.15;;;0.90;;
23800;SDS011;12081;48.614;10.226;2022-08-03T13:49:16;3.13;;;0.93;;
23800;SDS011;12081;48.614;10.226;2022-08-03T13:52:02;1.00;;;0.75;;
23800;SDS011;12081;48.614;10.226;2022-08-03T13:54:45;1.23;;;0.80;;
23800;SDS011;12081;48.614;10.226;2022-08-03T13:57:30;1.38;;;0.90;;
23800;SDS011;12081;48.614;10.226;2022-08-03T14:00:14;2.90;;;1.02;;
23800;SDS011;12081;48.614;10.226;2022-08-03T14:03:00;0.80;;;0.80;;
23800;SDS011;12081;48.614;10.226;2022-08-03T14:05:45;0.98;;;0.70;;
23800;SDS011;12081;48.614;10.226;2022-08-03T14:08:30;0.73;;;0.70;;
23800;SDS011;12081;48.614;10.226;2022-08-03T14:11:14;1.35;;;0.80;;
23800;SDS011;12081;48.614;10.226;2022-08-03T14:13:59;2.55;;;1.00;;
23800;SDS011;12081;48.614;10.226;2022-08-03T14:16:43;2.05;;;0.75;;
23800;SDS011;12081;48.614;10.226;2022-08-03T14:19:27;3.00;;;0.82;;
23800;SDS011;12081;48.614;10.226;2022-08-03T14:22:11;1.00;;;0.77;;
23800;SDS011;12081;48.614;10.226;2022-08-03T14:24:55;2.67;;;0.80;;
23800;SDS011;12081;48.614;10.226;2022-08-03T14:27:40;2.45;;;0.95;;
23800;SDS011;12081;48.614;10.226;2022-08-03T14:30:24;1.70;;;0.70;;
23800;SDS011;12081;48.614;10.226;2022-08-03T14:33:08;1.90;;;1.00;;
23800;SDS011;12081;48.614;10.226;2022-08-03T14:35:52;4.32;;;0.90;;
23800;SDS011;12081;48.614;10.226;2022-08-03T14:38:37;1.48;;;0.80;;
23800;SDS011;12081;48.614;10.226;2022-08-03T14:41:21;2.40;;;0.98;;
23800;SDS011;12081;48.614;10.226;2022-08-03T14:44:05;2.15;;;1.00;;
23800;SDS011;12081;48.614;10.226;2022-08-03T14:46:50;1.38;;;0.82;;
23800;SDS011;12081;48.614;10.226;2022-08-03T14:49:34;3.17;;;0.93;;
23800;SDS011;12081;48.614;10.226;2022-08-03T14:52:18;0.98;;;0.85;;
23800;SDS011;12081;48.614;10.226;2022-08-03T14:55:02;1.67;;;0.70;;
23800;SDS011;12081;48.614;10.226;2022-08-03T14:57:46;1.50;;;0.80;;
23800;SDS011;12081;48.614;10.226;2022-08-03T15:00:31;2.20;;;0.90;;
23800;SDS011;12081;48.614;10.226;2022-08-03T15:03:16;4.15;;;0.98;;
23800;SDS011;12081;48.614;10.226;2022-08-03T15:06:08;2.80;;;1.00;;
23800;SDS011;12081;48.614;10.226;2022-08-03T15:08:52;1.23;;;1.00;;
23800;SDS011;12081;48.614;10.226;2022-08-03T15:11:36;1.25;;;0.80;;
23800;SDS011;12081;48.614;10.226;2022-08-03T15:14:21;1.67;;;1.00;;
23800;SDS011;12081;48.614;10.226;2022-08-03T15:17:05;1.27;;;0.90;;
23800;SDS011;12081;48.614;10.226;2022-08-03T15:19:50;3.05;;;0.70;;
23800;SDS011;12081;48.614;10.226;2022-08-03T15:22:37;0.77;;;0.73;;
23800;SDS011;12081;48.614;10.226;2022-08-03T15:25:22;1.30;;;0.77;;
23800;SDS011;12081;48.614;10.226;2022-08-03T15:28:06;1.58;;;0.77;;
23800;SDS011;12081;48.614;10.226;2022-08-03T15:30:51;1.45;;;0.77;;
23800;SDS011;12081;48.614;10.226;2022-08-03T15:33:35;0.70;;;0.70;;
23800;SDS011;12081;48.614;10.226;2022-08-03T15:36:20;1.83;;;0.70;;
23800;SDS011;12081;48.614;10.226;2022-08-03T15:39:05;1.98;;;1.00;;
23800;SDS011;12081;48.614;10.226;2022-08-03T15:41:49;1.15;;;1.05;;
23800;SDS011;12081;48.614;10.226;2022-08-03T15:44:33;0.90;;;0.77;;
23800;SDS011;12081;48.614;10.226;2022-08-03T15:47:17;3.08;;;0.80;;
23800;SDS011;12081;48.614;10.226;2022-08-03T15:50:01;1.08;;;0.90;;
23800;SDS011;12081;48.614;10.226;2022-08-03T15:52:46;0.98;;;0.80;;
23800;SDS011;12081;48.614;10.226;2022-08-03T15:55:30;2.10;;;0.80;;
23800;SDS011;12081;48.614;10.226;2022-08-03T15:58:15;0.70;;;0.70;;
23800;SDS011;12081;48.614;10.226;2022-08-03T16:01:00;0.98;;;0.90;;
23800;SDS011;12081;48.614;10.226;2022-08-03T16:03:45;0.98;;;0.80;;
23800;SDS011;12081;48.614;10.226;2022-08-03T16:06:29;0.80;;;0.80;;
23800;SDS011;12081;48.614;10.226;2022-08-03T16:09:13;1.00;;;0.88;;
23800;SDS011;12081;48.614;10.226;2022-08-03T16:11:57;1.42;;;0.85;;
23800;SDS011;12081;48.614;10.226;2022-08-03T16:14:42;0.90;;;0.90;;
23800;SDS011;12081;48.614;10.226;2022-08-03T16:17:28;1.48;;;0.80;;
23800;SDS011;12081;48.614;10.226;2022-08-03T16:20:12;1.30;;;1.00;;
23800;SDS011;12081;48.614;10.226;2022-08-03T16:22:56;0.95;;;0.82;;
23800;SDS011;12081;48.614;10.226;2022-08-03T16:25:41;0.88;;;0.80;;
23800;SDS011;12081;48.614;10.226;2022-08-03T16:28:27;0.98;;;0.88;;
23800;SDS011;12081;48.614;10.226;2022-08-03T16:31:13;2.90;;;0.80;;
23800;SDS011;12081;48.614;10.226;2022-08-03T16:33:57;1.52;;;0.80;;
23800;SDS011;12081;48.614;10.226;2022-08-03T16:36:42;1.90;;;0.90;;
23800;SDS011;12081;48.614;10.226;2022-08-03T16:39:26;0.88;;;0.75;;
23800;SDS011;12081;48.614;10.226;2022-08-03T16:42:10;3.13;;;0.88;;
23800;SDS011;12081;48.614;10.226;2022-08-03T16:44:54;0.95;;;0.95;;
23800;SDS011;12081;48.614;10.226;2022-08-03T16:47:38;0.85;;;0.73;;
23800;SDS011;12081;48.614;10.226;2022-08-03T16:50:24;1.23;;;0.75;;
23800;SDS011;12081;48.614;10.226;2022-08-03T16:53:09;0.80;;;0.80;;
23800;SDS011;12081;48.614;10.226;2022-08-03T16:55:53;0.90;;;0.80;;
23800;SDS011;12081;48.614;10.226;2022-08-03T16:58:37;1.73;;;1.00;;
23800;SDS011;12081;48.614;10.226;2022-08-03T17:01:22;0.85;;;0.68;;
23800;SDS011;12081;48.614;10.226;2022-08-03T17:04:06;0.80;;;0.63;;
23800;SDS011;12081;48.614;10.226;2022-08-03T17:06:52;4.25;;;1.00;;
23800;SDS011;12081;48.614;10.226;2022-08-03T17:09:37;2.95;;;1.20;;
23800;SDS011;12081;48.614;10.226;2022-08-03T17:12:22;0.93;;;0.90;;
23800;SDS011;12081;48.614;10.226;2022-08-03T17:15:06;1.92;;;0.70;;
23800;SDS011;12081;48.614;10.226;2022-08-03T17:17:54;2.20;;;0.88;;
23800;SDS011;12081;48.614;10.226;2022-08-03T17:20:46;2.78;;;0.90;;
23800;SDS011;12081;48.614;10.226;2022-08-03T17:26:49;1.30;;;1.20;;
23800;SDS011;12081;48.614;10.226;2022-08-03T17:29:38;1.50;;;1.20;;
23800;SDS011;12081;48.614;10.226;2022-08-03T17:32:26;0.80;;;0.68;;
23800;SDS011;12081;48.614;10.226;2022-08-03T17:35:14;1.65;;;0.82;;
23800;SDS011;12081;48.614;10.226;2022-08-03T17:37:58;0.80;;;0.80;;
23800;SDS011;12081;48.614;10.226;2022-08-03T17:40:42;1.30;;;1.00;;
23800;SDS011;12081;48.614;10.226;2022-08-03T17:43:28;1.63;;;1.42;;
23800;SDS011;12081;48.614;10.226;2022-08-03T17:46:12;2.65;;;1.10;;
23800;SDS011;12081;48.614;10.226;2022-08-03T17:48:56;2.35;;;1.00;;
23800;SDS011;12081;48.614;10.226;2022-08-03T17:51:44;1.08;;;1.00;;
23800;SDS011;12081;48.614;10.226;2022-08-03T17:54:40;0.95;;;0.82;;
23800;SDS011;12081;48.614;10.226;2022-08-03T17:57:36;1.33;;;0.80;;
23800;SDS011;12081;48.614;10.226;2022-08-03T18:00:28;2.03;;;1.10;;
23800;SDS011;12081;48.614;10.226;2022-08-03T18:04:04;3.55;;;1.00;;
23800;SDS011;12081;48.614;10.226;2022-08-03T18:06:45;1.25;;;0.90;;
23800;SDS011;12081;48.614;10.226;2022-08-03T18:09:32;1.98;;;1.00;;
23800;SDS011;12081;48.614;10.226;2022-08-03T18:12:24;2.13;;;0.73;;
23800;SDS011;12081;48.614;10.226;2022-08-03T18:15:12;3.30;;;1.00;;
23800;SDS011;12081;48.614;10.226;2022-08-03T18:17:59;1.25;;;0.80;;
23800;SDS011;12081;48.614;10.226;2022-08-03T18:20:49;1.13;;;1.02;;
23800;SDS011;12081;48.614;10.226;2022-08-03T18:23:34;2.45;;;1.20;;
23800;SDS011;12081;48.614;10.226;2022-08-03T18:26:19;1.20;;;1.10;;
23800;SDS011;12081;48.614;10.226;2022-08-03T18:29:05;5.38;;;1.10;;
23800;SDS011;12081;48.614;10.226;2022-08-03T18:31:50;2.65;;;1.08;;
23800;SDS011;12081;48.614;10.226;2022-08-03T18:34:41;2.97;;;1.02;;
23800;SDS011;12081;48.614;10.226;2022-08-03T18:37:27;0.90;;;0.90;;
23800;SDS011;12081;48.614;10.226;2022-08-03T18:40:12;2.45;;;1.00;;
23800;SDS011;12081;48.614;10.226;2022-08-03T18:42:57;1.00;;;0.90;;
23800;SDS011;12081;48.614;10.226;2022-08-03T18:45:42;1.00;;;0.90;;
23800;SDS011;12081;48.614;10.226;2022-08-03T18:48:29;1.23;;;1.10;;
23800;SDS011;12081;48.614;10.226;2022-08-03T18:51:21;2.08;;;1.00;;
23800;SDS011;12081;48.614;10.226;2022-08-03T18:54:11;2.17;;;1.02;;
23800;SDS011;12081;48.614;10.226;2022-08-03T18:57:02;2.30;;;1.50;;
23800;SDS011;12081;48.614;10.226;2022-08-03T18:59:55;3.38;;;2.20;;
23800;SDS011;12081;48.614;10.226;2022-08-03T19:03:00;6.35;;;3.42;;
23800;SDS011;12081;48.614;10.226;2022-08-03T19:06:05;8.38;;;3.15;;
23800;SDS011;12081;48.614;10.226;2022-08-03T19:08:57;4.10;;;3.60;;
23800;SDS011;12081;48.614;10.226;2022-08-03T19:11:55;3.75;;;2.80;;
23800;SDS011;12081;48.614;10.226;2022-08-03T19:14:44;3.83;;;2.80;;
23800;SDS011;12081;48.614;10.226;2022-08-03T19:17:33;2.13;;;1.90;;
23800;SDS011;12081;48.614;10.226;2022-08-03T19:20:19;2.40;;;2.03;;
23800;SDS011;12081;48.614;10.226;2022-08-03T19:23:05;4.55;;;1.50;;
23800;SDS011;12081;48.614;10.226;2022-08-03T19:25:50;2.38;;;1.35;;
23800;SDS011;12081;48.614;10.226;2022-08-03T19:28:35;1.70;;;1.60;;
23800;SDS011;12081;48.614;10.226;2022-08-03T19:31:21;1.65;;;1.30;;
23800;SDS011;12081;48.614;10.226;2022-08-03T19:34:09;1.40;;;1.30;;
23800;SDS011;12081;48.614;10.226;2022-08-03T19:36:53;2.38;;;1.52;;
23800;SDS011;12081;48.614;10.226;2022-08-03T19:39:39;2.80;;;1.40;;
23800;SDS011;12081;48.614;10.226;2022-08-03T19:42:27;4.60;;;1.70;;
23800;SDS011;12081;48.614;10.226;2022-08-03T19:45:14;4.25;;;1.73;;
23800;SDS011;12081;48.614;10.226;2022-08-03T19:48:05;3.30;;;1.50;;
23800;SDS011;12081;48.614;10.226;2022-08-03T19:50:52;1.67;;;1.40;;
23800;SDS011;12081;48.614;10.226;2022-08-03T19:53:38;2.30;;;1.27;;
23800;SDS011;12081;48.614;10.226;2022-08-03T19:56:25;3.95;;;1.98;;
23800;SDS011;12081;48.614;10.226;2022-08-03T19:59:12;4.68;;;1.77;;
23800;SDS011;12081;48.614;10.226;2022-08-03T20:02:05;3.45;;;1.77;;
23800;SDS011;12081;48.614;10.226;2022-08-03T20:04:50;2.33;;;1.80;;
23800;SDS011;12081;48.614;10.226;2022-08-03T20:07:34;5.53;;;2.40;;
23800;SDS011;12081;48.614;10.226;2022-08-03T20:10:18;2.75;;;2.10;;
23800;SDS011;12081;48.614;10.226;2022-08-03T20:13:03;2.47;;;2.20;;
23800;SDS011;12081;48.614;10.226;2022-08-03T20:15:46;2.38;;;1.90;;
23800;SDS011;12081;48.614;10.226;2022-08-03T20:18:31;4.03;;;1.90;;
23800;SDS011;12081;48.614;10.226;2022-08-03T20:21:16;5.43;;;2.20;;
23800;SDS011;12081;48.614;10.226;2022-08-03T20:24:03;3.45;;;2.50;;
23800;SDS011;12081;48.614;10.226;2022-08-03T20:26:50;3.08;;;2.53;;
23800;SDS011;12081;48.614;10.226;2022-08-03T20:29:37;3.25;;;2.92;;
23800;SDS011;12081;48.614;10.226;2022-08-03T20:32:23;3.60;;;2.60;;
23800;SDS011;12081;48.614;10.226;2022-08-03T20:35:08;5.63;;;2.70;;
23800;SDS011;12081;48.614;10.226;2022-08-03T20:37:52;3.33;;;2.60;;
23800;SDS011;12081;48.614;10.226;2022-08-03T20:40:37;4.22;;;2.80;;
23800;SDS011;12081;48.614;10.226;2022-08-03T20:43:21;3.50;;;2.55;;
23800;SDS011;12081;48.614;10.226;2022-08-03T20:46:05;3.40;;;2.60;;
23800;SDS011;12081;48.614;10.226;2022-08-03T20:48:49;3.53;;;2.90;;
23800;SDS011;12081;48.614;10.226;2022-08-03T20:51:34;4.45;;;2.95;;
23800;SDS011;12081;48.614;10.226;2022-08-03T20:54:20;3.30;;;2.50;;
23800;SDS011;12081;48.614;10.226;2022-08-03T20:57:06;4.57;;;2.63;;
23800;SDS011;12081;48.614;10.226;2022-08-03T20:59:54;6.68;;;2.85;;
23800;SDS011;12081;48.614;10.226;2022-08-03T21:02:39;6.38;;;2.90;;
23800;SDS011;12081;48.614;10.226;2022-08-03T21:05:23;3.90;;;2.70;;
23800;SDS011;12081;48.614;10.226;2022-08-03T21:08:08;5.47;;;2.80;;
23800;SDS011;12081;48.614;10.226;2022-08-03T21:10:54;3.60;;;2.67;;
23800;SDS011;12081;48.614;10.226;2022-08-03T21:16:30;5.88;;;2.83;;
23800;SDS011;12081;48.614;10.226;2022-08-03T21:19:19;2.65;;;2.22;;